createdAt,value
2018-09-15T00:01:09.671Z,34.32
2018-09-15T00:03:45.930Z,34.39
2018-09-15T00:06:21.435Z,34.83
2018-09-15T00:08:57.035Z,33.68
2018-09-15T00:11:33.595Z,33.72
2018-09-15T00:14:09.238Z,34.29
2018-09-15T00:16:44.701Z,34.35
2018-09-15T00:19:20.403Z,34.56
2018-09-15T00:21:55.726Z,34.40
2018-09-15T00:24:31.423Z,34.48
2018-09-15T00:27:07.052Z,34.42
2018-09-15T00:29:42.851Z,35.11
2018-09-15T00:32:18.409Z,35.11
2018-09-15T00:34:53.775Z,33.74
2018-09-15T00:37:29.290Z,33.89
2018-09-15T00:40:04.874Z,33.82
2018-09-15T00:42:40.419Z,34.54
2018-09-15T00:45:15.786Z,34.25
2018-09-15T00:47:51.230Z,34.51
2018-09-15T00:50:26.698Z,34.47
2018-09-15T00:53:02.268Z,34.06
2018-09-15T00:55:37.719Z,35.03
2018-09-15T00:58:13.238Z,34.44
2018-09-15T01:00:48.818Z,34.10
2018-09-15T01:03:24.682Z,35.39
2018-09-15T01:06:00.242Z,34.75
2018-09-15T01:08:35.494Z,34.29
2018-09-15T01:11:10.741Z,34.46
2018-09-15T01:13:47.046Z,34.25
2018-09-15T01:16:22.655Z,34.48
2018-09-15T01:18:58.069Z,34.54
2018-09-15T01:21:33.736Z,34.25
2018-09-15T01:24:09.280Z,34.25
2018-09-15T01:26:44.693Z,35.59
2018-09-15T01:29:20.352Z,34.91
2018-09-15T01:31:55.742Z,34.78
2018-09-15T01:34:31.413Z,35.60
2018-09-15T01:38:11.487Z,34.72
2018-09-15T01:40:47.078Z,35.31
2018-09-15T01:43:22.437Z,34.39
2018-09-15T01:45:57.977Z,35.79
2018-09-15T01:48:33.238Z,35.04
2018-09-15T01:51:08.866Z,34.79
2018-09-15T01:53:44.256Z,35.77
2018-09-15T01:56:19.743Z,35.82
2018-09-15T01:58:55.992Z,34.83
2018-09-15T02:01:32.093Z,35.59
2018-09-15T02:04:07.906Z,35.15
2018-09-15T02:06:44.086Z,35.19
2018-09-15T02:09:20.259Z,34.62
2018-09-15T02:11:56.268Z,35.23
2018-09-15T02:14:31.978Z,35.59
2018-09-15T02:17:08.101Z,35.02
2018-09-15T02:19:44.078Z,35.62
2018-09-15T02:22:20.171Z,35.41
2018-09-15T02:24:56.087Z,35.52
2018-09-15T02:27:32.273Z,34.95
2018-09-15T02:30:08.090Z,35.41
2018-09-15T02:32:44.093Z,35.20
2018-09-15T02:35:20.270Z,35.12
2018-09-15T02:37:56.082Z,35.89
2018-09-15T02:40:32.318Z,35.06
2018-09-15T02:43:08.273Z,34.96
2018-09-15T02:45:44.748Z,35.63
2018-09-15T02:48:20.285Z,35.90
2018-09-15T02:53:18.279Z,34.77
2018-09-15T02:55:54.297Z,35.40
2018-09-15T02:58:30.441Z,34.60
2018-09-15T03:01:05.871Z,35.90
2018-09-15T03:03:41.444Z,35.17
2018-09-15T03:06:17.305Z,35.31
2018-09-15T03:08:53.297Z,34.55
2018-09-15T03:11:29.102Z,35.91
2018-09-15T03:14:05.111Z,34.74
2018-09-15T03:16:41.511Z,35.25
2018-09-15T03:19:17.313Z,35.06
2018-09-15T03:21:52.516Z,35.62
2018-09-15T03:24:28.066Z,34.82
2018-09-15T03:27:03.514Z,35.21
2018-09-15T03:29:39.585Z,34.82
2018-09-15T03:32:14.934Z,34.59
2018-09-15T03:34:50.582Z,34.93
2018-09-15T03:37:26.294Z,33.97
2018-09-15T03:40:01.745Z,34.56
2018-09-15T03:42:37.294Z,34.80
2018-09-15T03:45:13.103Z,34.07
2018-09-15T03:47:48.303Z,34.15
2018-09-15T03:50:23.739Z,34.27
2018-09-15T03:52:59.922Z,34.21
2018-09-15T03:55:35.837Z,34.23
2018-09-15T03:58:11.523Z,34.02
2018-09-15T04:00:47.117Z,33.36
2018-09-15T04:05:36.961Z,33.76
2018-09-15T04:11:08.119Z,34.76
2018-09-15T04:13:43.523Z,34.63
2018-09-15T04:16:21.892Z,33.93
2018-09-15T04:18:57.734Z,33.46
2018-09-15T04:21:33.121Z,33.40
2018-09-15T04:24:08.510Z,34.15
2018-09-15T04:26:44.156Z,33.97
2018-09-15T04:29:19.787Z,33.64
2018-09-15T04:31:55.343Z,33.88
2018-09-15T04:34:31.317Z,34.00
2018-09-15T04:37:07.001Z,33.26
2018-09-15T04:39:42.902Z,34.21
2018-09-15T04:42:18.477Z,34.15
2018-09-15T04:44:53.875Z,32.93
2018-09-15T04:47:29.522Z,33.82
2018-09-15T04:50:05.121Z,33.22
2018-09-15T04:52:40.571Z,32.75
2018-09-15T04:55:16.482Z,33.36
2018-09-15T04:57:52.374Z,33.31
2018-09-15T05:00:27.577Z,32.84
2018-09-15T05:03:03.138Z,33.25
2018-09-15T05:12:33.508Z,33.52
2018-09-15T05:15:08.954Z,32.69
2018-09-15T05:18:18.128Z,33.48
2018-09-15T05:23:11.819Z,33.31
2018-09-15T05:25:47.146Z,33.20
2018-09-15T05:28:22.931Z,33.33
2018-09-15T05:30:59.042Z,33.41
2018-09-15T05:33:34.491Z,33.16
2018-09-15T05:36:10.374Z,33.78
2018-09-15T05:38:46.047Z,32.39
2018-09-15T05:41:21.560Z,33.59
2018-09-15T05:45:32.343Z,32.64
2018-09-15T05:48:09.342Z,32.72
2018-09-15T05:50:44.898Z,33.16
2018-09-15T05:53:20.347Z,32.89
2018-09-15T05:57:19.546Z,33.06
2018-09-15T05:59:55.167Z,32.45
2018-09-15T06:02:31.794Z,33.05
2018-09-15T06:05:07.369Z,33.12
2018-09-15T06:07:43.006Z,32.83
2018-09-15T06:10:18.565Z,33.79
2018-09-15T06:12:54.183Z,33.05
2018-09-15T06:15:31.018Z,32.44
2018-09-15T06:18:06.920Z,32.96
2018-09-15T06:20:42.361Z,32.94
2018-09-15T06:23:17.917Z,33.01
2018-09-15T06:25:53.773Z,32.80
2018-09-15T06:28:30.401Z,32.70
2018-09-15T06:31:05.978Z,32.35
2018-09-15T06:33:42.514Z,33.53
2018-09-15T06:36:17.995Z,33.16
2018-09-15T06:38:53.926Z,32.71
2018-09-15T06:41:29.517Z,33.41
2018-09-15T06:44:05.005Z,33.23
2018-09-15T06:46:40.511Z,32.93
2018-09-15T06:49:16.089Z,33.87
2018-09-15T06:53:11.920Z,33.34
2018-09-15T06:55:47.963Z,33.54
2018-09-15T06:58:23.936Z,33.25
2018-09-15T07:00:59.977Z,32.06
2018-09-15T07:03:35.833Z,33.40
2018-09-15T07:06:11.806Z,33.55
2018-09-15T07:08:47.953Z,33.64
2018-09-15T07:11:25.024Z,32.55
2018-09-15T07:14:00.945Z,33.02
2018-09-15T07:16:37.370Z,33.46
2018-09-15T07:19:13.362Z,33.31
2018-09-15T07:21:49.199Z,33.79
2018-09-15T07:24:25.580Z,33.93
2018-09-15T07:27:02.188Z,33.38
2018-09-15T07:29:38.202Z,33.04
2018-09-15T07:32:14.471Z,33.68
2018-09-15T07:34:50.735Z,32.64
2018-09-15T07:37:27.749Z,33.93
2018-09-15T07:40:04.092Z,33.37
2018-09-15T07:42:40.113Z,33.08
2018-09-15T07:45:16.211Z,33.69
2018-09-15T07:47:52.166Z,33.56
2018-09-15T07:50:28.104Z,33.84
2018-09-15T07:53:05.441Z,34.17
2018-09-15T07:55:41.840Z,33.81
2018-09-15T07:58:18.327Z,33.29
2018-09-15T08:00:54.395Z,32.75
2018-09-15T08:03:31.190Z,33.51
2018-09-15T08:06:07.173Z,33.36
2018-09-15T08:08:43.406Z,33.06
2018-09-15T08:11:19.859Z,33.66
2018-09-15T08:13:56.270Z,33.10
2018-09-15T08:16:32.386Z,34.04
2018-09-15T08:19:08.395Z,32.84
2018-09-15T08:21:44.201Z,34.05
2018-09-15T08:24:20.210Z,33.14
2018-09-15T08:26:56.211Z,33.45
2018-09-15T08:29:32.221Z,33.41
2018-09-15T08:32:08.285Z,33.10
2018-09-15T08:34:45.095Z,33.46
2018-09-15T08:37:21.178Z,32.95
2018-09-15T08:39:57.153Z,33.79
2018-09-15T08:42:33.156Z,34.05
2018-09-15T08:45:09.390Z,34.18
2018-09-15T08:47:45.377Z,34.02
2018-09-15T08:50:21.566Z,33.92
2018-09-15T08:52:57.627Z,33.92
2018-09-15T08:55:33.664Z,33.60
2018-09-15T08:58:10.146Z,33.93
2018-09-15T09:00:46.223Z,33.93
2018-09-15T09:03:22.225Z,33.88
2018-09-15T09:05:58.222Z,33.72
2018-09-15T09:08:34.118Z,33.00
2018-09-15T09:11:10.225Z,33.89
2018-09-15T09:13:46.194Z,33.86
2018-09-15T09:16:22.190Z,33.41
2018-09-15T09:18:58.107Z,33.95
2018-09-15T09:21:34.213Z,32.99
2018-09-15T09:24:10.228Z,33.47
2018-09-15T09:26:46.699Z,34.22
2018-09-15T09:29:23.049Z,33.65
2018-09-15T09:31:59.045Z,33.50
2018-09-15T09:34:34.967Z,33.65
2018-09-15T09:37:11.641Z,33.12
2018-09-15T09:39:47.637Z,33.55
2018-09-15T09:42:24.131Z,33.96
2018-09-15T09:45:00.986Z,33.32
2018-09-15T09:47:37.241Z,33.34
2018-09-15T09:50:13.413Z,32.83
2018-09-15T09:52:49.360Z,32.81
2018-09-15T09:55:25.417Z,33.97
2018-09-15T09:58:03.267Z,33.92
2018-09-15T10:00:43.011Z,33.60
2018-09-15T10:03:19.238Z,33.22
2018-09-15T10:05:55.228Z,33.88
2018-09-15T10:08:31.419Z,32.95
2018-09-15T10:11:07.653Z,32.72
2018-09-15T10:13:44.022Z,34.20
2018-09-15T10:16:20.283Z,33.85
2018-09-15T10:18:56.273Z,33.75
2018-09-15T10:21:32.255Z,33.11
2018-09-15T10:24:08.281Z,33.04
2018-09-15T10:26:44.130Z,33.88
2018-09-15T10:29:20.250Z,32.81
2018-09-15T10:31:56.287Z,33.91
2018-09-15T10:34:32.251Z,33.24
2018-09-15T10:37:08.271Z,32.75
2018-09-15T10:39:44.238Z,33.45
2018-09-15T10:42:20.424Z,34.02
2018-09-15T10:44:56.425Z,33.93
2018-09-15T10:47:32.251Z,33.35
2018-09-15T10:50:08.463Z,34.02
2018-09-15T10:52:45.249Z,33.15
2018-09-15T10:55:21.225Z,33.92
2018-09-15T10:57:57.186Z,32.63
2018-09-15T11:00:32.969Z,33.70
2018-09-15T11:03:09.209Z,33.52
2018-09-15T11:05:45.159Z,33.12
2018-09-15T11:08:21.149Z,32.79
2018-09-15T11:10:57.418Z,32.82
2018-09-15T11:13:33.425Z,33.68
2018-09-15T11:16:09.702Z,33.18
2018-09-15T11:18:46.121Z,33.23
2018-09-15T11:21:22.269Z,33.62
2018-09-15T11:23:58.175Z,32.88
2018-09-15T11:26:34.263Z,33.17
2018-09-15T11:29:10.952Z,33.65
2018-09-15T11:31:47.277Z,33.15
2018-09-15T11:34:23.442Z,32.91
2018-09-15T11:36:59.123Z,33.06
2018-09-15T11:39:35.442Z,32.53
2018-09-15T11:42:11.029Z,33.22
2018-09-15T11:44:47.266Z,33.46
2018-09-15T11:47:23.468Z,32.43
2018-09-15T11:49:59.276Z,32.70
2018-09-15T11:52:36.050Z,32.55
2018-09-15T11:55:12.270Z,33.42
2018-09-15T11:57:48.445Z,33.60
2018-09-15T12:00:28.730Z,33.63
2018-09-15T12:03:04.873Z,33.33
2018-09-15T12:05:41.044Z,32.85
2018-09-15T12:08:16.862Z,33.15
2018-09-15T12:13:38.925Z,33.71
2018-09-15T12:16:14.814Z,33.05
2018-09-15T12:18:51.101Z,33.42
2018-09-15T12:21:26.953Z,33.08
2018-09-15T12:24:03.208Z,33.31
2018-09-15T12:26:39.475Z,33.67
2018-09-15T12:29:15.465Z,33.02
2018-09-15T12:31:51.445Z,32.86
2018-09-15T12:34:27.454Z,32.79
2018-09-15T12:37:04.256Z,33.10
2018-09-15T12:39:40.291Z,32.69
2018-09-15T12:42:16.241Z,33.32
2018-09-15T12:44:52.239Z,33.59
2018-09-15T12:47:28.306Z,32.45
2018-09-15T12:50:04.273Z,33.10
2018-09-15T12:52:40.288Z,33.26
2018-09-15T12:55:16.477Z,32.68
2018-09-15T12:57:52.502Z,33.44
2018-09-15T13:00:29.162Z,32.87
2018-09-15T13:03:05.297Z,32.69
2018-09-15T13:05:41.261Z,32.66
2018-09-15T13:08:17.105Z,32.69
2018-09-15T13:10:53.190Z,33.17
2018-09-15T13:13:29.300Z,32.64
2018-09-15T13:16:05.155Z,33.55
2018-09-15T13:18:41.046Z,33.10
2018-09-15T13:21:17.050Z,32.94
2018-09-15T13:23:53.280Z,33.38
2018-09-15T13:26:29.297Z,33.43
2018-09-15T13:29:05.210Z,33.22
2018-09-15T13:31:42.031Z,32.17
2018-09-15T13:34:17.646Z,32.86
2018-09-15T13:36:53.971Z,33.51
2018-09-15T13:39:29.923Z,32.83
2018-09-15T13:42:05.957Z,32.85
2018-09-15T13:44:42.080Z,33.02
2018-09-15T13:47:19.297Z,33.55
2018-09-15T13:49:55.314Z,33.00
2018-09-15T13:52:31.306Z,32.32
2018-09-15T13:55:08.309Z,33.42
2018-09-15T13:57:44.215Z,33.09
2018-09-15T14:00:20.285Z,32.66
2018-09-15T14:02:56.310Z,32.10
2018-09-15T14:05:32.302Z,33.51
2018-09-15T14:08:09.737Z,33.62
2018-09-15T14:10:46.836Z,33.13
2018-09-15T14:13:23.314Z,32.68
2018-09-15T14:15:59.313Z,33.66
2018-09-15T14:18:35.208Z,33.62
2018-09-15T14:21:11.293Z,33.78
2018-09-15T14:23:47.055Z,32.75
2018-09-15T14:26:23.490Z,32.01
2018-09-15T14:28:59.510Z,33.57
2018-09-15T14:31:35.650Z,32.46
2018-09-15T14:34:11.696Z,32.87
2018-09-15T14:36:47.719Z,33.51
2018-09-15T14:39:24.066Z,33.46
2018-09-15T14:42:00.078Z,32.85
2018-09-15T14:44:36.494Z,32.68
2018-09-15T14:47:12.445Z,33.00
2018-09-15T14:49:49.502Z,32.62
2018-09-15T14:52:25.497Z,33.29
2018-09-15T14:55:02.621Z,33.52
2018-09-15T14:57:38.978Z,32.77
2018-09-15T15:00:15.281Z,32.33
2018-09-15T15:02:56.078Z,33.07
2018-09-15T15:05:32.308Z,33.70
2018-09-15T15:08:08.512Z,33.41
2018-09-15T15:10:44.607Z,33.46
2018-09-15T15:13:20.611Z,32.77
2018-09-15T15:15:56.517Z,33.31
2018-09-15T15:18:32.510Z,32.87
2018-09-15T15:21:08.306Z,33.23
2018-09-15T15:23:44.330Z,33.55
2018-09-15T15:26:20.151Z,32.50
2018-09-15T15:28:56.327Z,33.13
2018-09-15T15:31:33.516Z,32.78
2018-09-15T15:34:09.491Z,32.84
2018-09-15T15:36:45.937Z,32.92
2018-09-15T15:39:22.242Z,33.80
2018-09-15T15:41:58.306Z,32.32
2018-09-15T15:44:34.679Z,32.65
2018-09-15T15:47:11.156Z,33.10
2018-09-15T15:49:47.196Z,32.62
2018-09-15T15:52:23.378Z,32.49
2018-09-15T15:54:59.746Z,33.42
2018-09-15T15:57:36.069Z,33.18
2018-09-15T16:00:12.095Z,33.15
2018-09-15T16:02:47.989Z,33.79
2018-09-15T16:05:24.113Z,33.67
2018-09-15T16:08:00.030Z,33.84
2018-09-15T16:10:35.970Z,33.24
2018-09-15T16:13:11.690Z,33.37
2018-09-15T16:15:47.522Z,33.68
2018-09-15T16:18:24.338Z,34.21
2018-09-15T16:21:00.386Z,34.22
2018-09-15T16:23:36.474Z,33.80
2018-09-15T16:26:12.357Z,32.79
2018-09-15T16:28:48.701Z,33.98
2018-09-15T16:31:24.724Z,34.18
2018-09-15T16:34:01.166Z,32.94
2018-09-15T16:36:37.478Z,33.63
2018-09-15T16:39:15.696Z,33.56
2018-09-15T16:41:51.371Z,33.62
2018-09-15T16:44:27.340Z,33.85
2018-09-15T16:47:03.732Z,34.04
2018-09-15T16:49:39.595Z,33.80
2018-09-15T16:52:15.552Z,33.50
2018-09-15T16:54:51.269Z,33.83
2018-09-15T16:57:27.214Z,32.65
2018-09-15T17:00:03.028Z,33.59
2018-09-15T17:02:39.296Z,32.69
2018-09-15T17:05:15.579Z,32.87
2018-09-15T17:07:54.698Z,33.60
2018-09-15T17:10:28.652Z,34.13
2018-09-15T17:13:04.398Z,33.93
2018-09-15T17:15:40.365Z,33.10
2018-09-15T17:18:16.366Z,33.08
2018-09-15T17:20:52.344Z,33.35
2018-09-15T17:23:28.700Z,33.69
2018-09-15T17:26:04.358Z,32.56
2018-09-15T17:28:40.381Z,33.43
2018-09-15T17:31:16.452Z,33.78
2018-09-15T17:33:52.554Z,32.70
2018-09-15T17:36:28.373Z,33.87
2018-09-15T17:39:05.017Z,33.92
2018-09-15T17:41:41.285Z,33.80
2018-09-15T17:44:17.396Z,32.99
2018-09-15T17:46:53.192Z,32.92
2018-09-15T17:49:29.292Z,33.69
2018-09-15T17:52:05.280Z,33.59
2018-09-15T17:54:41.480Z,33.44
2018-09-15T17:57:17.194Z,33.62
2018-09-15T17:59:53.284Z,32.98
2018-09-15T18:02:29.381Z,33.03
2018-09-15T18:05:06.122Z,32.30
2018-09-15T18:07:42.172Z,32.51
2018-09-15T18:10:18.166Z,33.17
2018-09-15T18:12:54.554Z,32.72
2018-09-15T18:15:30.792Z,33.75
2018-09-15T18:18:06.567Z,33.22
2018-09-15T18:20:42.565Z,32.99
2018-09-15T18:23:18.611Z,32.87
2018-09-15T18:25:54.845Z,33.57
2018-09-15T18:28:31.232Z,33.86
2018-09-15T18:31:07.194Z,32.83
2018-09-15T18:33:43.200Z,33.68
2018-09-15T18:36:19.477Z,32.51
2018-09-15T18:38:56.232Z,32.64
2018-09-15T18:41:32.045Z,33.67
2018-09-15T18:44:08.174Z,33.13
2018-09-15T18:46:44.394Z,32.62
2018-09-15T18:49:20.386Z,32.90
2018-09-15T18:51:56.219Z,32.58
2018-09-15T18:54:32.725Z,33.17
2018-09-15T18:57:08.585Z,33.55
2018-09-15T18:59:44.676Z,32.43
2018-09-15T19:02:20.754Z,32.62
2018-09-15T19:04:57.345Z,32.60
2018-09-15T19:07:33.209Z,33.13
2018-09-15T19:10:09.321Z,33.36
2018-09-15T19:12:45.221Z,32.99
2018-09-15T19:15:21.209Z,32.84
2018-09-15T19:17:57.271Z,33.57
2018-09-15T19:20:33.328Z,33.06
2018-09-15T19:23:09.210Z,32.74
2018-09-15T19:25:45.361Z,33.12
2018-09-15T19:28:21.615Z,32.72
2018-09-15T19:30:57.589Z,33.15
2018-09-15T19:33:33.396Z,33.14
2018-09-15T19:36:09.389Z,32.40
2018-09-15T19:38:45.892Z,33.02
2018-09-15T19:41:21.621Z,32.66
2018-09-15T19:43:57.214Z,33.43
2018-09-15T19:46:32.585Z,33.23
2018-09-15T19:49:07.816Z,32.41
2018-09-15T19:51:43.398Z,33.07
2018-09-15T19:54:19.169Z,33.02
2018-09-15T19:56:54.804Z,33.13
2018-09-15T19:59:30.391Z,33.81
2018-09-15T20:02:06.181Z,33.31
2018-09-15T20:04:41.845Z,33.15
2018-09-15T20:07:17.431Z,33.22
2018-09-15T20:09:53.003Z,33.88
2018-09-15T20:12:29.819Z,33.10
2018-09-15T20:15:05.431Z,32.69
2018-09-15T20:17:36.433Z,32.82
2018-09-15T20:20:07.233Z,32.95
2018-09-15T20:22:41.564Z,32.70
2018-09-15T20:25:17.211Z,33.31
2018-09-15T20:27:53.127Z,32.39
2018-09-15T20:30:28.669Z,32.32
2018-09-15T20:33:04.417Z,32.81
2018-09-15T20:35:40.334Z,32.78
2018-09-15T20:38:15.634Z,33.68
2018-09-15T20:40:51.087Z,33.00
2018-09-15T20:43:26.609Z,32.89
2018-09-15T20:46:02.218Z,33.37
2018-09-15T20:48:37.877Z,33.24
2018-09-15T20:51:13.435Z,32.90
2018-09-15T20:53:49.241Z,32.26
2018-09-15T20:56:25.118Z,32.30
2018-09-15T20:59:00.620Z,33.28
2018-09-15T21:01:35.838Z,32.43
2018-09-15T21:04:11.611Z,32.71
2018-09-15T21:06:47.410Z,32.89
2018-09-15T21:09:22.798Z,32.35
2018-09-15T21:11:58.325Z,32.79
2018-09-15T21:14:33.847Z,32.82
2018-09-15T21:17:09.440Z,32.84
2018-09-15T21:19:46.330Z,32.36
2018-09-15T21:22:21.823Z,32.40
2018-09-15T21:24:57.564Z,32.63
2018-09-15T21:27:33.050Z,33.44
2018-09-15T21:30:09.241Z,33.38
2018-09-15T21:32:44.641Z,33.04
2018-09-15T21:35:20.077Z,32.63
2018-09-15T21:37:56.119Z,32.73
2018-09-15T21:40:32.448Z,33.39
2018-09-15T21:43:08.450Z,32.78
2018-09-15T21:45:44.425Z,32.53
2018-09-15T21:48:20.399Z,33.49
2018-09-15T21:50:56.452Z,33.32
2018-09-15T21:53:32.405Z,32.77
2018-09-15T21:56:08.933Z,33.29
2018-09-15T21:58:45.099Z,32.90
2018-09-15T22:01:21.398Z,32.41
2018-09-15T22:04:01.461Z,33.69
2018-09-15T22:06:37.259Z,33.45
2018-09-15T22:09:16.022Z,33.15
2018-09-15T22:11:51.893Z,33.83
2018-09-15T22:14:30.893Z,33.21
2018-09-15T22:17:07.242Z,32.67
2018-09-15T22:19:43.476Z,33.34
2018-09-15T22:22:19.870Z,33.94
2018-09-15T22:24:56.464Z,33.78
2018-09-15T22:27:32.456Z,34.07
2018-09-15T22:30:10.444Z,34.02
2018-09-15T22:32:46.466Z,33.81
2018-09-15T22:35:22.462Z,33.22
2018-09-15T22:37:58.467Z,32.78
2018-09-15T22:40:34.472Z,33.12
2018-09-15T22:43:12.645Z,33.29
2018-09-15T22:45:48.472Z,33.12
2018-09-15T22:48:24.502Z,33.51
2018-09-15T22:51:00.243Z,33.82
2018-09-15T22:53:36.642Z,33.94
2018-09-15T22:56:12.642Z,32.91
2018-09-15T22:58:48.661Z,33.30
2018-09-15T23:01:24.836Z,33.15
2018-09-15T23:04:09.059Z,33.20
2018-09-15T23:06:45.815Z,33.14
2018-09-15T23:09:22.468Z,33.19
2018-09-15T23:11:58.447Z,33.15
2018-09-15T23:14:34.410Z,33.40
2018-09-15T23:17:10.566Z,34.19
2018-09-15T23:19:47.037Z,33.16
2018-09-15T23:22:23.933Z,33.61
2018-09-15T23:25:00.221Z,33.37
2018-09-15T23:27:36.215Z,33.59
2018-09-15T23:30:12.038Z,33.54
2018-09-15T23:32:48.916Z,33.58
2018-09-15T23:35:25.224Z,33.91
2018-09-15T23:38:01.405Z,33.47
2018-09-15T23:40:37.377Z,32.95
2018-09-15T23:43:13.732Z,33.83
2018-09-15T23:45:49.729Z,32.90
2018-09-15T23:48:26.392Z,33.68
2018-09-15T23:51:02.777Z,34.12
2018-09-15T23:53:38.985Z,33.18
2018-09-15T23:56:15.015Z,34.28
2018-09-15T23:58:51.008Z,34.26
